Daisy, GA (30423)

12:45 PM EDT on April 25, 2015 (GMT -0400)
Claxton-Evans County | | Change Station
CLOSE
Current Station
Airport
Location: Claxton,
Elevation: 112 ft
Nearby Weather Stations

Elev 112 ft 32.20 °N, 81.87 °W | Updated 10 minutes ago

Overcast
Overcast
68 °F
Feels Like 68 °F
N
7
Wind Variable Wind from South

Today
High -- | Low -- °F
--% Chance of Precip.
Yesterday
High -- | Low -- °F
Precip. -- in
6:47 AM 8:03 PM
Waxing Crescent, 47% visible
Pressure 29.85 in
Visibility 10.0 miles
Clouds Scattered Clouds 300 ft
Mostly Cloudy 2500 ft
Mostly Cloudy 3500 ft
Dew Point 68 °F
Humidity 100%
Rainfall 0.00 in
Snow Depth Not available.
UV 6 out of 12
Pollen 8.40 out of 12
Air Quality Not available.
Flu Activity Sporadic
METAR KCWV 251635Z AUTO 17006KT 10SM SCT003 BKN025 BKN035 20/20 A2985 RMK AO2 LTG DSNT E AND S

More Conditions Fewer Conditions

Pressure 29.85 in
Visibility 10.0 miles
Clouds Scattered Clouds 300 ft
Mostly Cloudy 2500 ft
Mostly Cloudy 3500 ft
Dew Point 68 °F
Humidity 100%
Rainfall 0.00 in
Snow Depth Not available.
UV 6 out of 12
Pollen 8.40 out of 12
Air Quality Not available.
Flu Activity Sporadic
METAR KCWV 251635Z AUTO 17006KT 10SM SCT003 BKN025 BKN035 20/20 A2985 RMK AO2 LTG DSNT E AND S

More Conditions Fewer Conditions

10-Day Weather Forecast

Almanac

Astronomy

Apr. 25, 2015 Rise Set
Actual Time
Civil Twilight
Nautical Twilight
Astronomical Twilight
Moon
Length of Visible Light
Length of Day
Tomorrow will be .
, % of the Moon is Illuminated

Today's Extremes

State Highs State Lows

Community

WunderPhotos

Upload Photos

1,816,737 photos uploaded!

WunderBlogs® & News

Nearby

Air Quality

  Air Quality AQ Index Pollutant
Not available.

Snow Depth

Station Depth Elevation

Earthquake Activity

City Distance Mag. Time & Date
Minimum magnitude displayed is 2.5.

Coastal Water Temperatures

Place Temperature

Stations

Nearby Weather Stations

Station Location Temp. Windchill Dew Point Humidity Wind Precip. Elev Updated Type